createdAt,value
2022-09-22T00:01:33.072Z,5.47
2022-09-22T00:04:04.368Z,5.77
2022-09-22T00:06:35.378Z,6.37
2022-09-22T00:09:06.495Z,7.10
2022-09-22T00:11:37.494Z,7.83
2022-09-22T00:14:07.892Z,6.87
2022-09-22T00:16:39.015Z,6.07
2022-09-22T00:19:07.645Z,5.03
2022-09-22T00:21:36.835Z,6.53
2022-09-22T00:24:08.180Z,6.13
2022-09-22T00:26:38.073Z,8.13
2022-09-22T00:29:08.054Z,9.40
2022-09-22T00:31:37.485Z,5.47
2022-09-22T00:34:06.057Z,6.20
2022-09-22T00:36:34.782Z,5.47
2022-09-22T00:39:02.763Z,6.83
2022-09-22T00:41:34.071Z,8.83
2022-09-22T00:44:30.155Z,8.03
2022-09-22T00:47:02.102Z,9.03
2022-09-22T00:49:38.939Z,6.17
2022-09-22T00:52:07.787Z,6.27
2022-09-22T00:54:36.235Z,7.30
2022-09-22T00:57:09.067Z,6.23
2022-09-22T00:59:37.585Z,7.13
2022-09-22T01:02:05.846Z,6.93
2022-09-22T01:04:34.247Z,8.57
2022-09-22T01:07:02.736Z,5.83
2022-09-22T01:09:32.956Z,6.17
2022-09-22T01:12:01.332Z,5.83
2022-09-22T01:14:43.056Z,12.43
2022-09-22T01:17:19.552Z,9.17
2022-09-22T01:20:17.659Z,4.97
2022-09-22T01:23:15.543Z,7.03
2022-09-22T01:26:10.256Z,8.73
2022-09-22T01:29:04.914Z,6.90
2022-09-22T01:31:38.120Z,7.60
2022-09-22T01:34:13.091Z,4.93
2022-09-22T01:36:50.701Z,6.73
2022-09-22T01:39:22.747Z,8.27
2022-09-22T01:41:58.255Z,9.83
2022-09-22T01:44:33.023Z,5.07
2022-09-22T01:47:06.379Z,6.33
2022-09-22T01:49:38.527Z,5.00
2022-09-22T01:52:13.067Z,4.77
2022-09-22T01:54:45.375Z,6.53
2022-09-22T01:57:18.332Z,5.17
2022-09-22T01:59:52.724Z,6.27
2022-09-22T02:02:26.695Z,6.33
2022-09-22T02:05:00.118Z,9.40
2022-09-22T02:07:33.797Z,8.00
2022-09-22T02:10:06.566Z,8.73
2022-09-22T02:12:35.985Z,6.40
2022-09-22T02:15:04.125Z,7.53
2022-09-22T02:17:35.444Z,6.00
2022-09-22T02:20:06.514Z,4.90
2022-09-22T02:22:34.486Z,7.47
2022-09-22T02:25:02.821Z,7.10
2022-09-22T02:27:36.776Z,7.00
2022-09-22T02:30:08.220Z,4.63
2022-09-22T02:32:40.459Z,5.50
2022-09-22T02:35:09.871Z,7.83
2022-09-22T02:37:44.673Z,9.63
2022-09-22T02:40:25.566Z,5.23
2022-09-22T02:42:59.547Z,4.27
2022-09-22T02:45:32.111Z,5.73
2022-09-22T02:48:05.452Z,8.27
2022-09-22T02:50:35.419Z,4.50
2022-09-22T02:53:05.533Z,6.73
2022-09-22T02:55:33.495Z,4.87
2022-09-22T02:58:01.401Z,6.93
2022-09-22T03:00:29.328Z,4.43
2022-09-22T03:02:57.189Z,5.33
2022-09-22T03:05:26.731Z,7.70
2022-09-22T03:07:54.667Z,7.23
2022-09-22T03:10:22.581Z,14.37
2022-09-22T03:13:15.048Z,8.30
2022-09-22T03:15:38.708Z,6.43
2022-09-22T03:18:06.765Z,5.60
2022-09-22T03:20:36.029Z,7.70
2022-09-22T03:23:03.953Z,5.77
2022-09-22T03:25:31.950Z,6.60
2022-09-22T03:27:59.959Z,6.93
2022-09-22T03:30:29.210Z,4.43
2022-09-22T03:32:57.168Z,4.00
2022-09-22T03:35:25.116Z,7.20
2022-09-22T03:37:54.365Z,5.90
2022-09-22T03:40:23.231Z,7.13
2022-09-22T03:42:51.189Z,5.97
2022-09-22T03:45:19.242Z,5.60
2022-09-22T03:47:47.511Z,6.60
2022-09-22T03:50:15.650Z,6.70
2022-09-22T03:52:44.965Z,4.10
2022-09-22T03:55:14.553Z,6.50
2022-09-22T03:57:43.775Z,4.50
2022-09-22T04:00:14.003Z,4.13
2022-09-22T04:02:42.344Z,4.83
2022-09-22T04:05:11.309Z,4.93
2022-09-22T04:07:39.816Z,7.50
2022-09-22T04:10:09.023Z,5.93
2022-09-22T04:12:38.287Z,6.90
2022-09-22T04:15:07.235Z,7.60
2022-09-22T04:17:35.321Z,4.43
2022-09-22T04:20:03.926Z,7.63
2022-09-22T04:22:31.907Z,5.23
2022-09-22T04:25:00.254Z,5.27
2022-09-22T04:27:28.148Z,5.93
2022-09-22T04:29:57.459Z,5.70
2022-09-22T04:32:25.394Z,6.63
2022-09-22T04:34:53.309Z,4.60
2022-09-22T04:37:21.219Z,6.90
2022-09-22T04:39:49.107Z,7.30
2022-09-22T04:42:17.045Z,4.83
2022-09-22T04:44:46.108Z,6.30
2022-09-22T04:47:15.351Z,9.23
2022-09-22T04:49:43.211Z,5.97
2022-09-22T04:52:11.368Z,3.90
2022-09-22T04:54:39.269Z,6.27
2022-09-22T04:57:07.253Z,7.33
2022-09-22T04:59:35.329Z,6.43
2022-09-22T05:02:03.621Z,8.97
2022-09-22T05:04:32.861Z,6.27
2022-09-22T05:07:00.739Z,4.63
2022-09-22T05:09:29.172Z,5.90
2022-09-22T05:12:01.371Z,4.70
2022-09-22T05:14:29.579Z,7.40
2022-09-22T05:16:57.656Z,6.40
2022-09-22T05:19:25.650Z,7.67
2022-09-22T05:21:54.971Z,4.50
2022-09-22T05:24:22.950Z,5.40
2022-09-22T05:26:50.880Z,5.60
2022-09-22T05:29:18.775Z,5.17
2022-09-22T05:31:49.154Z,6.17
2022-09-22T05:34:17.221Z,6.33
2022-09-22T05:36:45.143Z,8.47
2022-09-22T05:39:14.478Z,5.50
2022-09-22T05:41:42.393Z,9.37
2022-09-22T05:44:10.313Z,5.30
2022-09-22T05:46:38.225Z,5.50
2022-09-22T05:49:06.173Z,7.83
2022-09-22T05:51:34.189Z,9.17
2022-09-22T05:54:02.732Z,6.67
2022-09-22T05:56:33.833Z,5.33
2022-09-22T05:59:01.779Z,7.17
2022-09-22T06:01:30.018Z,6.60
2022-09-22T06:03:57.953Z,9.53
2022-09-22T06:06:25.948Z,6.47
2022-09-22T06:08:53.865Z,5.63
2022-09-22T06:11:21.826Z,6.03
2022-09-22T06:13:52.208Z,5.70
2022-09-22T06:16:20.192Z,8.00
2022-09-22T06:18:48.786Z,7.07
2022-09-22T06:21:17.511Z,6.37
2022-09-22T06:23:45.419Z,4.33
2022-09-22T06:26:13.332Z,4.70
2022-09-22T06:28:41.266Z,5.40
2022-09-22T06:31:10.567Z,8.63
2022-09-22T06:33:38.530Z,7.63
2022-09-22T06:36:08.075Z,6.67
2022-09-22T06:38:35.992Z,5.77
2022-09-22T06:41:04.296Z,8.50
2022-09-22T06:43:32.905Z,6.77
2022-09-22T06:46:02.804Z,5.13
2022-09-22T06:48:32.197Z,8.00
2022-09-22T06:51:00.150Z,8.13
2022-09-22T06:53:28.329Z,7.37
2022-09-22T06:55:56.269Z,5.67
2022-09-22T06:58:25.265Z,5.43
2022-09-22T07:00:53.633Z,7.13
2022-09-22T07:03:24.359Z,7.43
2022-09-22T07:06:00.773Z,6.13
2022-09-22T07:08:30.480Z,4.10
2022-09-22T07:11:00.847Z,7.13
2022-09-22T07:13:30.610Z,5.90
2022-09-22T07:16:01.924Z,7.00
2022-09-22T07:18:30.061Z,7.33
2022-09-22T07:21:05.687Z,7.73
2022-09-22T07:23:34.623Z,6.20
2022-09-22T07:26:04.058Z,9.23
2022-09-22T07:28:33.514Z,7.77
2022-09-22T07:31:05.966Z,6.90
2022-09-22T07:33:33.942Z,4.80
2022-09-22T07:36:05.714Z,7.77
2022-09-22T07:38:36.522Z,8.23
2022-09-22T07:41:07.089Z,6.40
2022-09-22T07:43:35.269Z,6.83
2022-09-22T07:46:03.788Z,6.00
2022-09-22T07:48:38.094Z,8.50
2022-09-22T07:51:15.707Z,8.07
2022-09-22T07:53:45.757Z,6.63
2022-09-22T07:56:15.450Z,5.57
2022-09-22T07:58:46.858Z,7.90
2022-09-22T08:01:15.439Z,6.20
2022-09-22T08:03:44.102Z,4.30
2022-09-22T08:06:18.265Z,6.57
2022-09-22T08:08:52.337Z,6.63
2022-09-22T08:11:21.915Z,9.97
2022-09-22T08:13:52.558Z,9.13
2022-09-22T08:16:22.600Z,6.80
2022-09-22T08:18:56.029Z,7.20
2022-09-22T08:21:25.448Z,8.30
2022-09-22T08:23:53.394Z,4.77
2022-09-22T08:26:22.882Z,5.43
2022-09-22T08:28:53.318Z,8.10
2022-09-22T08:31:22.469Z,5.20
2022-09-22T08:33:52.903Z,5.50
2022-09-22T08:36:21.574Z,6.50
2022-09-22T08:38:50.854Z,5.17
2022-09-22T08:41:27.413Z,5.30
2022-09-22T08:44:00.534Z,3.40
2022-09-22T08:46:31.160Z,4.87
2022-09-22T08:49:21.314Z,3.20
2022-09-22T08:51:54.934Z,8.57
2022-09-22T08:54:27.979Z,9.77
2022-09-22T08:57:15.090Z,5.60
2022-09-22T08:59:47.197Z,6.30
2022-09-22T09:02:41.120Z,6.70
2022-09-22T09:05:39.467Z,4.30
2022-09-22T09:08:23.810Z,6.83
2022-09-22T09:10:56.272Z,4.27
2022-09-22T09:13:38.380Z,4.53
2022-09-22T09:16:25.775Z,6.03
2022-09-22T09:18:58.586Z,9.20
2022-09-22T09:21:27.829Z,5.33
2022-09-22T09:26:52.331Z,4.00
2022-09-22T09:29:25.653Z,4.07
2022-09-22T09:31:55.825Z,3.20
2022-09-22T09:34:26.822Z,4.27
2022-09-22T09:37:03.060Z,2.93
2022-09-22T09:39:33.315Z,4.77
2022-09-22T09:42:04.748Z,3.20
2022-09-22T09:44:38.969Z,5.13
2022-09-22T09:47:17.353Z,2.57
2022-09-22T09:49:45.389Z,3.67
2022-09-22T09:52:15.396Z,2.58
2022-09-22T09:54:47.234Z,3.70
2022-09-22T09:57:18.176Z,2.42
2022-09-22T10:00:05.320Z,2.35
2022-09-22T10:02:37.089Z,3.15
2022-09-22T10:05:08.445Z,6.60
2022-09-22T10:07:43.124Z,2.75
2022-09-22T10:10:33.672Z,2.00
2022-09-22T10:13:32.053Z,5.65
2022-09-22T10:16:07.272Z,3.65
2022-09-22T10:18:40.451Z,1.70
2022-09-22T10:21:16.183Z,2.28
2022-09-22T10:23:45.031Z,2.50
2022-09-22T10:26:19.687Z,1.70
2022-09-22T10:29:09.100Z,1.60
2022-09-22T10:31:38.597Z,1.77
2022-09-22T10:34:08.089Z,2.08
2022-09-22T10:36:44.701Z,2.78
2022-09-22T10:39:18.716Z,1.83
2022-09-22T10:41:47.921Z,2.25
2022-09-22T10:44:38.596Z,4.93
2022-09-22T10:47:27.251Z,2.25
2022-09-22T10:50:27.855Z,1.73
2022-09-22T10:53:03.016Z,26.10
2022-09-22T10:55:35.533Z,5.22
2022-09-22T10:58:22.242Z,4.25
2022-09-22T11:01:00.900Z,1.95
2022-09-22T11:03:44.455Z,3.07
2022-09-22T11:06:51.177Z,1.40
2022-09-22T11:09:42.302Z,2.23
2022-09-22T11:12:23.491Z,3.77
2022-09-22T11:15:13.240Z,1.00
2022-09-22T11:18:01.972Z,2.47
2022-09-22T11:20:36.725Z,9.53
2022-09-22T11:23:47.061Z,1.10
2022-09-22T11:26:37.083Z,2.47
2022-09-22T11:29:34.850Z,1.30
2022-09-22T11:32:11.918Z,2.30
2022-09-22T11:35:04.124Z,4.63
2022-09-22T11:37:44.035Z,0.87
2022-09-22T11:40:32.784Z,0.80
2022-09-22T11:43:13.286Z,2.13
2022-09-22T11:45:49.680Z,1.13
2022-09-22T11:48:35.506Z,1.50
2022-09-22T11:51:36.253Z,2.80
2022-09-22T11:54:18.270Z,1.00
2022-09-22T11:56:50.968Z,2.47
2022-09-22T11:59:30.680Z,1.80
2022-09-22T12:02:04.609Z,1.80
2022-09-22T12:04:38.147Z,1.00
2022-09-22T12:07:19.603Z,1.37
2022-09-22T12:09:51.656Z,1.10
2022-09-22T12:12:23.099Z,1.33
2022-09-22T12:14:57.979Z,0.90
2022-09-22T12:17:33.168Z,1.00
2022-09-22T12:20:08.588Z,0.80
2022-09-22T12:22:58.624Z,1.23
2022-09-22T12:25:50.564Z,0.90
2022-09-22T12:28:20.673Z,1.17
2022-09-22T12:31:04.871Z,0.90
2022-09-22T12:33:35.202Z,1.10
2022-09-22T12:36:04.437Z,3.10
2022-09-22T12:38:34.134Z,0.90
2022-09-22T12:41:04.307Z,1.10
2022-09-22T12:43:34.122Z,0.80
2022-09-22T12:46:06.945Z,1.20
2022-09-22T12:48:37.120Z,1.90
2022-09-22T12:51:17.422Z,0.97
2022-09-22T12:56:44.281Z,1.53
2022-09-22T12:59:47.496Z,1.27
2022-09-22T13:02:29.347Z,1.07
2022-09-22T13:05:35.990Z,0.80
2022-09-22T13:08:04.740Z,0.80
2022-09-22T13:10:52.109Z,0.83
2022-09-22T13:13:24.013Z,1.10
2022-09-22T13:16:00.012Z,2.03
2022-09-22T13:18:33.233Z,0.70
2022-09-22T13:21:02.886Z,2.20
2022-09-22T13:23:31.331Z,1.07
2022-09-22T13:26:15.320Z,0.90
2022-09-22T13:28:43.557Z,0.90
2022-09-22T13:31:14.955Z,1.03
2022-09-22T13:33:43.842Z,0.80
2022-09-22T13:36:14.595Z,1.40
2022-09-22T13:38:44.985Z,3.03
2022-09-22T13:41:17.860Z,0.93
2022-09-22T13:43:49.716Z,1.50
2022-09-22T13:46:22.489Z,0.63
2022-09-22T13:48:51.828Z,0.60
2022-09-22T13:51:19.839Z,0.70
2022-09-22T13:53:52.330Z,1.53
2022-09-22T13:56:23.815Z,2.23
2022-09-22T13:58:55.471Z,0.70
2022-09-22T14:01:26.188Z,1.60
2022-09-22T14:03:56.627Z,0.97
2022-09-22T14:06:27.243Z,0.70
2022-09-22T14:08:56.033Z,1.40
2022-09-22T14:11:28.392Z,1.63
2022-09-22T14:14:02.221Z,1.57
2022-09-22T14:16:35.626Z,1.43
2022-09-22T14:19:06.349Z,1.63
2022-09-22T14:21:41.322Z,1.93
2022-09-22T14:24:12.612Z,0.80
2022-09-22T14:26:47.539Z,0.90
2022-09-22T14:29:19.192Z,1.23
2022-09-22T14:31:52.139Z,0.97
2022-09-22T14:34:24.984Z,0.90
2022-09-22T14:36:55.064Z,0.80
2022-09-22T14:39:31.457Z,1.50
2022-09-22T14:42:11.278Z,1.70
2022-09-22T14:44:44.553Z,1.37
2022-09-22T14:47:27.709Z,0.93
2022-09-22T14:50:18.680Z,2.10
2022-09-22T14:52:59.047Z,1.37
2022-09-22T14:55:36.467Z,2.33
2022-09-22T14:58:09.576Z,3.23
2022-09-22T15:00:55.652Z,0.60
2022-09-22T15:03:27.320Z,0.70
2022-09-22T15:05:56.474Z,3.23
2022-09-22T15:08:28.208Z,0.83
2022-09-22T15:10:57.679Z,0.93
2022-09-22T15:13:37.512Z,0.70
2022-09-22T15:16:06.724Z,2.73
2022-09-22T15:18:34.961Z,1.60
2022-09-22T15:21:11.338Z,1.33
2022-09-22T15:23:42.501Z,1.70
2022-09-22T15:26:16.427Z,0.97
2022-09-22T15:28:48.342Z,2.47
2022-09-22T15:31:22.263Z,2.70
2022-09-22T15:33:50.285Z,1.47
2022-09-22T15:36:21.489Z,1.80
2022-09-22T15:38:49.967Z,3.97
2022-09-22T15:41:17.799Z,8.57
2022-09-22T15:43:47.184Z,2.03
2022-09-22T15:46:28.099Z,12.97
2022-09-22T15:49:00.825Z,2.47
2022-09-22T15:51:30.362Z,2.67
2022-09-22T15:53:58.671Z,1.00
2022-09-22T15:56:30.066Z,1.53
2022-09-22T15:59:01.966Z,1.43
2022-09-22T16:01:31.489Z,0.93
2022-09-22T16:04:00.312Z,1.57
2022-09-22T16:06:28.496Z,1.10
2022-09-22T16:08:58.442Z,2.30
2022-09-22T16:11:29.500Z,0.97
2022-09-22T16:14:01.091Z,0.90
2022-09-22T16:16:30.187Z,0.73
2022-09-22T16:18:58.872Z,2.37
2022-09-22T16:21:29.319Z,2.47
2022-09-22T16:24:03.408Z,1.07
2022-09-22T16:26:32.500Z,1.20
2022-09-22T16:29:03.129Z,0.70
2022-09-22T16:31:31.278Z,1.73
2022-09-22T16:34:01.548Z,1.37
2022-09-22T16:36:32.851Z,1.80
2022-09-22T16:39:01.870Z,1.07
2022-09-22T16:41:31.985Z,1.80
2022-09-22T16:44:02.345Z,1.80
2022-09-22T16:46:33.648Z,3.00
2022-09-22T16:49:05.242Z,1.10
2022-09-22T16:51:35.445Z,1.17
2022-09-22T16:54:03.653Z,0.83
2022-09-22T16:56:33.872Z,1.37
2022-09-22T16:59:04.865Z,3.60
2022-09-22T17:01:36.321Z,2.10
2022-09-22T17:04:05.771Z,1.63
2022-09-22T17:06:34.051Z,3.47
2022-09-22T17:09:01.938Z,3.77
2022-09-22T17:11:34.419Z,3.33
2022-09-22T17:14:10.042Z,1.87
2022-09-22T17:16:41.032Z,1.50
2022-09-22T17:19:10.456Z,1.43
2022-09-22T17:21:40.033Z,1.13
2022-09-22T17:24:09.891Z,2.57
2022-09-22T17:26:41.194Z,1.23
2022-09-22T17:29:10.905Z,2.73
2022-09-22T17:31:41.613Z,3.70
2022-09-22T17:34:10.453Z,3.40
2022-09-22T17:36:38.898Z,2.20
2022-09-22T17:39:07.384Z,2.20
2022-09-22T17:41:35.612Z,1.60
2022-09-22T17:44:04.664Z,3.87
2022-09-22T17:46:35.413Z,1.73
2022-09-22T17:49:21.116Z,2.13
2022-09-22T17:52:08.017Z,3.17
2022-09-22T17:54:55.091Z,3.00
2022-09-22T17:57:24.928Z,4.73
2022-09-22T17:59:55.060Z,2.20
2022-09-22T18:02:26.073Z,1.63
2022-09-22T18:04:54.319Z,3.30
2022-09-22T18:07:24.093Z,1.40
2022-09-22T18:09:53.784Z,3.43
2022-09-22T18:12:24.729Z,3.53
2022-09-22T18:14:55.499Z,3.77
2022-09-22T18:17:26.695Z,2.80
2022-09-22T18:19:55.729Z,4.77
2022-09-22T18:22:24.754Z,2.80
2022-09-22T18:24:55.509Z,2.43
2022-09-22T18:27:25.032Z,2.53
2022-09-22T18:29:54.077Z,1.87
2022-09-22T18:32:22.182Z,2.43
2022-09-22T18:34:53.823Z,2.67
2022-09-22T18:37:22.715Z,3.90
2022-09-22T18:39:51.222Z,3.13
2022-09-22T18:42:19.707Z,3.27
2022-09-22T18:44:47.968Z,3.67
2022-09-22T18:47:17.797Z,1.97
2022-09-22T18:49:48.098Z,3.57
2022-09-22T18:52:21.560Z,2.27
2022-09-22T18:54:51.759Z,2.60
2022-09-22T18:57:20.300Z,2.83
2022-09-22T18:59:51.012Z,3.80
2022-09-22T19:02:22.600Z,3.37
2022-09-22T19:04:52.181Z,3.23
2022-09-22T19:07:44.087Z,5.47
2022-09-22T19:10:14.058Z,4.07
2022-09-22T19:12:42.727Z,3.57
2022-09-22T19:15:14.965Z,2.83
2022-09-22T19:17:44.136Z,2.83
2022-09-22T19:20:14.680Z,6.23
2022-09-22T19:22:44.309Z,4.80
2022-09-22T19:25:12.471Z,2.87
2022-09-22T19:27:40.783Z,4.43
2022-09-22T19:30:09.669Z,4.03
2022-09-22T19:32:37.989Z,3.63
2022-09-22T19:35:07.239Z,3.20
2022-09-22T19:37:35.162Z,5.07
2022-09-22T19:40:05.820Z,4.23
2022-09-22T19:42:40.132Z,4.83
2022-09-22T19:45:09.391Z,5.00
2022-09-22T19:47:37.702Z,4.00
2022-09-22T19:50:07.965Z,4.33
2022-09-22T19:52:36.281Z,2.53
2022-09-22T19:55:06.189Z,5.20
2022-09-22T19:57:35.018Z,3.50
2022-09-22T20:00:03.205Z,3.53
2022-09-22T20:02:31.070Z,2.90
2022-09-22T20:04:58.968Z,3.53
2022-09-22T20:07:28.416Z,2.97
2022-09-22T20:09:57.250Z,3.60
2022-09-22T20:12:26.766Z,3.80
2022-09-22T20:14:54.655Z,4.03
2022-09-22T20:17:23.133Z,5.47
2022-09-22T20:19:51.045Z,7.03
2022-09-22T20:22:22.872Z,5.53
2022-09-22T20:24:57.125Z,3.43
2022-09-22T20:27:29.030Z,6.17
2022-09-22T20:29:57.803Z,2.87
2022-09-22T20:32:26.606Z,6.73
2022-09-22T20:34:55.887Z,6.80
2022-09-22T20:37:24.467Z,3.83
2022-09-22T20:39:52.470Z,4.80
2022-09-22T20:42:20.374Z,3.80
2022-09-22T20:44:49.619Z,3.63
2022-09-22T20:47:18.846Z,5.97
2022-09-22T20:49:51.575Z,4.67
2022-09-22T20:52:21.192Z,3.50
2022-09-22T20:54:49.486Z,3.13
2022-09-22T20:57:17.814Z,2.43
2022-09-22T20:59:46.295Z,6.27
2022-09-22T21:02:16.919Z,5.17
2022-09-22T21:04:44.946Z,3.17
2022-09-22T21:07:12.916Z,3.40
2022-09-22T21:10:00.738Z,4.53
2022-09-22T21:12:31.643Z,5.17
2022-09-22T21:14:59.629Z,2.97
2022-09-22T21:17:29.648Z,4.33
2022-09-22T21:19:58.136Z,5.40
2022-09-22T21:22:28.007Z,4.77
2022-09-22T21:24:56.278Z,5.07
2022-09-22T21:27:24.645Z,3.77
2022-09-22T21:29:53.161Z,5.97
2022-09-22T21:32:21.204Z,4.57
2022-09-22T21:34:50.433Z,5.03
2022-09-22T21:37:18.915Z,5.23
2022-09-22T21:39:46.822Z,6.93
2022-09-22T21:42:14.732Z,6.63
2022-09-22T21:44:42.735Z,6.10
2022-09-22T21:47:11.460Z,4.77
2022-09-22T21:49:39.427Z,4.97
2022-09-22T21:52:08.728Z,4.37
2022-09-22T21:54:36.927Z,4.03
2022-09-22T21:57:04.938Z,4.47
2022-09-22T21:59:32.882Z,5.63
2022-09-22T22:02:00.953Z,4.73
2022-09-22T22:04:28.867Z,5.73
2022-09-22T22:06:56.792Z,3.47
2022-09-22T22:09:26.295Z,5.17
2022-09-22T22:11:56.998Z,3.57
2022-09-22T22:14:27.247Z,3.50
2022-09-22T22:16:56.209Z,4.20
2022-09-22T22:19:26.889Z,4.53
2022-09-22T22:21:55.180Z,3.07
2022-09-22T22:24:33.039Z,4.33
2022-09-22T22:27:06.169Z,5.40
2022-09-22T22:29:36.251Z,4.20
2022-09-22T22:32:05.024Z,4.27
2022-09-22T22:34:33.138Z,3.13
2022-09-22T22:37:01.166Z,3.77
2022-09-22T22:39:30.509Z,3.33
2022-09-22T22:41:58.672Z,3.43
2022-09-22T22:44:28.772Z,4.63
2022-09-22T22:46:56.727Z,3.17
2022-09-22T22:49:24.808Z,8.63
2022-09-22T22:51:53.055Z,3.07
2022-09-22T22:54:20.996Z,3.20
2022-09-22T22:56:51.406Z,3.60
2022-09-22T22:59:20.117Z,3.00
2022-09-22T23:01:48.093Z,7.07
2022-09-22T23:04:16.640Z,5.67
2022-09-22T23:06:44.910Z,4.27
2022-09-22T23:09:15.598Z,4.43
2022-09-22T23:11:45.773Z,4.10
2022-09-22T23:14:17.002Z,4.23
2022-09-22T23:16:46.914Z,2.93
2022-09-22T23:19:16.773Z,5.90
2022-09-22T23:21:45.804Z,3.63
2022-09-22T23:24:16.216Z,2.93
2022-09-22T23:26:44.677Z,3.87
2022-09-22T23:29:14.149Z,3.53
2022-09-22T23:31:42.112Z,5.40
2022-09-22T23:34:10.079Z,3.23
2022-09-22T23:36:39.394Z,2.53
2022-09-22T23:39:07.500Z,3.13
2022-09-22T23:41:37.459Z,3.50
2022-09-22T23:44:07.139Z,7.40
2022-09-22T23:46:38.204Z,4.50
2022-09-22T23:49:06.577Z,4.37
2022-09-22T23:51:34.494Z,5.27
2022-09-22T23:54:02.509Z,4.13
2022-09-22T23:56:30.426Z,3.83
2022-09-22T23:58:58.478Z,3.27
